TimeCDT,TemperatureF,Dew PointF,Humidity,Sea Level PressureIn,VisibilityMPH,Wind Direction,Wind SpeedMPH,Gust SpeedMPH,PrecipitationIn,Events,Conditions,WindDirDegrees,DateUTC
12:13 AM,28.4,24.8,86,30.28,10.0,NNW,12.7,-,N/A,,Mostly Cloudy,330,2013-04-23 05:13:00
12:33 AM,28.4,24.8,86,30.27,10.0,NNW,13.8,20.7,N/A,,Clear,340,2013-04-23 05:33:00
12:53 AM,28.4,23.0,80,30.28,10.0,NNW,13.8,-,N/A,,Scattered Clouds,330,2013-04-23 05:53:00
1:13 AM,26.6,21.2,80,30.28,10.0,NNW,12.7,-,N/A,,Clear,330,2013-04-23 06:13:00
1:33 AM,26.6,21.2,80,30.27,10.0,NNW,11.5,-,N/A,,Clear,330,2013-04-23 06:33:00
1:53 AM,26.6,21.2,80,30.27,10.0,NW,13.8,-,N/A,,Clear,320,2013-04-23 06:53:00
2:14 AM,24.8,19.4,80,30.27,10.0,NW,13.8,-,N/A,,Clear,320,2013-04-23 07:14:00
2:33 AM,24.8,19.4,80,30.26,10.0,NNW,12.7,-,N/A,,Clear,330,2013-04-23 07:33:00
2:53 AM,24.8,19.4,80,30.26,10.0,NNW,11.5,-,N/A,,Clear,330,2013-04-23 07:53:00
3:13 AM,23.0,19.4,86,30.25,10.0,NNW,9.2,-,N/A,,Clear,330,2013-04-23 08:13:00
3:33 AM,23.0,17.6,80,30.25,10.0,NW,11.5,-,N/A,,Clear,320,2013-04-23 08:33:00
3:54 AM,24.8,19.4,80,30.25,10.0,NW,11.5,-,N/A,,Clear,320,2013-04-23 08:54:00
4:13 AM,21.2,17.6,86,30.25,10.0,NW,10.4,-,N/A,,Clear,320,2013-04-23 09:13:00
4:34 AM,21.2,17.6,86,30.25,10.0,NW,11.5,-,N/A,,Clear,320,2013-04-23 09:34:00
4:54 AM,21.2,17.6,86,30.24,10.0,NNW,11.5,-,N/A,,Clear,330,2013-04-23 09:54:00
5:13 AM,21.2,17.6,86,30.24,10.0,NNW,13.8,-,N/A,,Clear,330,2013-04-23 10:13:00
5:33 AM,21.2,19.4,93,30.23,10.0,NNW,12.7,-,N/A,,Clear,330,2013-04-23 10:33:00
5:53 AM,21.2,19.4,93,30.23,10.0,NNW,15.0,-,N/A,,Clear,330,2013-04-23 10:53:00
6:13 AM,21.2,17.6,86,30.25,10.0,NW,11.5,-,N/A,,Clear,320,2013-04-23 11:13:00
6:33 AM,21.2,17.6,86,30.24,10.0,NW,10.4,-,N/A,,Clear,320,2013-04-23 11:33:00
6:53 AM,21.2,17.6,86,30.25,10.0,NW,11.5,-,N/A,,Clear,320,2013-04-23 11:53:00
7:13 AM,21.2,17.6,86,30.24,10.0,NW,12.7,-,N/A,,Clear,320,2013-04-23 12:13:00
7:33 AM,21.2,17.6,86,30.25,10.0,NW,9.2,-,N/A,,Clear,320,2013-04-23 12:33:00
7:53 AM,23.0,17.6,80,30.25,10.0,NNW,10.4,-,N/A,,Clear,330,2013-04-23 12:53:00
8:13 AM,24.8,19.4,80,30.25,10.0,NW,12.7,-,N/A,,Clear,320,2013-04-23 13:13:00
8:33 AM,24.8,19.4,80,30.25,10.0,NW,9.2,-,N/A,,Clear,320,2013-04-23 13:33:00
8:53 AM,26.6,19.4,74,30.26,10.0,NW,11.5,-,N/A,,Clear,320,2013-04-23 13:53:00
9:14 AM,26.6,19.4,74,30.26,10.0,NW,10.4,-,N/A,,Clear,320,2013-04-23 14:14:00
9:33 AM,28.4,21.2,74,30.26,10.0,NNW,12.7,-,N/A,,Clear,330,2013-04-23 14:33:00
9:53 AM,28.4,21.2,74,30.25,10.0,NNW,12.7,-,N/A,,Clear,330,2013-04-23 14:53:00
10:13 AM,28.4,21.2,74,30.24,10.0,NNW,12.7,-,N/A,,Clear,330,2013-04-23 15:13:00
10:33 AM,30.2,21.2,69,30.24,10.0,NNW,13.8,-,N/A,,Clear,330,2013-04-23 15:33:00
10:54 AM,30.2,21.2,69,30.23,10.0,NNW,10.4,-,N/A,,Clear,330,2013-04-23 15:54:00
11:14 AM,30.2,21.2,69,30.23,10.0,NW,11.5,-,N/A,,Clear,320,2013-04-23 16:14:00
11:33 AM,32.0,23.0,69,30.23,10.0,NNW,11.5,-,N/A,,Clear,330,2013-04-23 16:33:00
11:53 AM,33.8,23.0,65,30.22,10.0,NW,10.4,-,N/A,,Clear,320,2013-04-23 16:53:00
12:14 PM,33.8,23.0,65,30.22,10.0,NW,11.5,-,N/A,,Clear,320,2013-04-23 17:14:00
12:34 PM,33.8,21.2,60,30.22,10.0,NW,11.5,-,N/A,,Clear,320,2013-04-23 17:34:00
12:53 PM,35.6,21.2,56,30.21,10.0,NW,10.4,16.1,N/A,,Clear,320,2013-04-23 17:53:00
1:13 PM,35.6,21.2,56,30.20,10.0,NW,11.5,-,N/A,,Clear,320,2013-04-23 18:13:00
1:33 PM,35.6,21.2,56,30.20,10.0,NW,12.7,-,N/A,,Clear,310,2013-04-23 18:33:00
1:53 PM,35.6,21.2,56,30.19,10.0,WNW,15.0,-,N/A,,Clear,300,2013-04-23 18:53:00
2:13 PM,35.6,23.0,60,30.19,10.0,WNW,15.0,-,N/A,,Scattered Clouds,300,2013-04-23 19:13:00
2:33 PM,35.6,23.0,60,30.18,10.0,WNW,12.7,19.6,N/A,,Mostly Cloudy,300,2013-04-23 19:33:00
2:53 PM,37.4,23.0,56,30.18,10.0,WNW,12.7,-,N/A,,Scattered Clouds,290,2013-04-23 19:53:00
3:13 PM,37.4,23.0,56,30.17,10.0,NW,13.8,19.6,N/A,,Mostly Cloudy,310,2013-04-23 20:13:00
3:33 PM,37.4,23.0,56,30.17,10.0,NW,11.5,-,N/A,,Scattered Clouds,310,2013-04-23 20:33:00
3:53 PM,37.4,23.0,56,30.16,10.0,NW,11.5,-,N/A,,Scattered Clouds,320,2013-04-23 20:53:00
4:13 PM,37.4,24.8,60,30.16,10.0,WNW,11.5,-,N/A,,Scattered Clouds,290,2013-04-23 21:13:00
4:33 PM,37.4,23.0,56,30.15,10.0,NW,11.5,-,N/A,,Clear,310,2013-04-23 21:33:00
4:53 PM,37.4,23.0,56,30.15,10.0,WNW,13.8,18.4,N/A,,Clear,290,2013-04-23 21:53:00
5:13 PM,39.2,23.0,52,30.14,10.0,NW,10.4,-,N/A,,Scattered Clouds,310,2013-04-23 22:13:00
5:33 PM,37.4,21.2,52,30.13,10.0,NW,10.4,-,N/A,,Clear,310,2013-04-23 22:33:00
5:53 PM,37.4,24.8,60,30.13,10.0,NW,10.4,-,N/A,,Clear,310,2013-04-23 22:53:00
6:14 PM,37.4,24.8,60,30.12,10.0,WNW,11.5,-,N/A,,Clear,290,2013-04-23 23:14:00
6:33 PM,37.4,24.8,60,30.12,10.0,WNW,10.4,-,N/A,,Clear,300,2013-04-23 23:33:00
6:54 PM,37.4,24.8,60,30.11,10.0,NW,10.4,-,N/A,,Clear,310,2013-04-23 23:54:00
7:13 PM,37.4,23.0,56,30.11,10.0,WNW,9.2,-,N/A,,Clear,300,2013-04-24 00:13:00
7:33 PM,37.4,24.8,60,30.11,10.0,NW,6.9,-,N/A,,Clear,310,2013-04-24 00:33:00
7:54 PM,35.6,24.8,65,30.11,10.0,NW,5.8,-,N/A,,Clear,310,2013-04-24 00:54:00
8:13 PM,33.8,26.6,75,30.11,10.0,West,3.5,-,N/A,,Clear,280,2013-04-24 01:13:00
8:33 PM,32.0,26.6,80,30.11,10.0,WNW,3.5,-,N/A,,Clear,290,2013-04-24 01:33:00
8:53 PM,30.2,26.6,86,30.11,10.0,SW,3.5,-,N/A,,Clear,220,2013-04-24 01:53:00
9:13 PM,32.0,24.8,75,30.11,10.0,SW,4.6,-,N/A,,Clear,220,2013-04-24 02:13:00
9:33 PM,30.2,24.8,80,30.11,10.0,SW,3.5,-,N/A,,Clear,220,2013-04-24 02:33:00
9:53 PM,30.2,26.6,86,30.11,10.0,SW,4.6,-,N/A,,Clear,220,2013-04-24 02:53:00
10:13 PM,30.2,26.6,86,30.10,10.0,SSW,4.6,-,N/A,,Clear,210,2013-04-24 03:13:00
10:33 PM,30.2,24.8,80,30.09,10.0,SSW,4.6,-,N/A,,Clear,200,2013-04-24 03:33:00
10:54 PM,30.2,24.8,80,30.09,10.0,SSW,4.6,-,N/A,,Clear,200,2013-04-24 03:54:00
11:13 PM,30.2,26.6,86,30.08,10.0,SSW,4.6,-,N/A,,Clear,200,2013-04-24 04:13:00
11:33 PM,30.2,26.6,86,30.08,10.0,SSW,5.8,-,N/A,,Clear,200,2013-04-24 04:33:00
11:53 PM,30.2,24.8,80,30.07,10.0,SSW,6.9,-,N/A,,Clear,200,2013-04-24 04:53:00